Walthourville, Georgia
Current Conditions -  °F | °C
As of 5:33 AM on Friday 21 Nov 2014 (Local Time) from KLHW Reporting Station
Haze Haze  
Wind Chill: 36°   Ceiling: Unl
Heat Index: 36°   Visibility: 5mi
Dew Point: 32°   Wind: 0mph
Humidity: 87%   Direction: NA
Pressure: 30.29"   Gusts: NA
Location:  31.77°N, 81.63°W
Report Text: KLHW 211033Z AUTO 00000KT 5SM R33/4500FT BR CLR 02/00 A3029 RMK AO2
Loading
Personal Weather Stations






























Interactive Weather Map New forecast layout! Learn more

10-Day Weather Forecast

Advertisements
Track Severe Weather on mobile